sensor_id;sensor_type;location;lat;lon;timestamp;P1;durP1;ratioP1;P2;durP2;ratioP2
68300;SDS011;55146;47.468;18.806;2023-03-01T00:01:11;21.48;;;12.95;;
68300;SDS011;55146;47.468;18.806;2023-03-01T00:03:39;20.30;;;11.68;;
68300;SDS011;55146;47.468;18.806;2023-03-01T00:06:05;20.00;;;12.73;;
68300;SDS011;55146;47.468;18.806;2023-03-01T00:08:31;24.33;;;13.75;;
68300;SDS011;55146;47.468;18.806;2023-03-01T00:13:39;21.47;;;13.13;;
68300;SDS011;55146;47.468;18.806;2023-03-01T00:16:07;24.77;;;12.98;;
68300;SDS011;55146;47.468;18.806;2023-03-01T00:18:34;24.45;;;12.68;;
68300;SDS011;55146;47.468;18.806;2023-03-01T00:21:00;20.57;;;11.90;;
68300;SDS011;55146;47.468;18.806;2023-03-01T00:23:25;23.37;;;13.73;;
68300;SDS011;55146;47.468;18.806;2023-03-01T00:25:51;23.17;;;12.70;;
68300;SDS011;55146;47.468;18.806;2023-03-01T00:28:17;27.23;;;13.70;;
68300;SDS011;55146;47.468;18.806;2023-03-01T00:30:43;29.97;;;16.27;;
68300;SDS011;55146;47.468;18.806;2023-03-01T00:33:08;28.83;;;14.85;;
68300;SDS011;55146;47.468;18.806;2023-03-01T00:35:34;33.00;;;15.23;;
68300;SDS011;55146;47.468;18.806;2023-03-01T00:38:00;35.42;;;16.05;;
68300;SDS011;55146;47.468;18.806;2023-03-01T00:40:26;30.75;;;15.10;;
68300;SDS011;55146;47.468;18.806;2023-03-01T00:42:53;30.87;;;14.50;;
68300;SDS011;55146;47.468;18.806;2023-03-01T00:45:18;28.92;;;15.20;;
68300;SDS011;55146;47.468;18.806;2023-03-01T00:47:44;28.97;;;14.67;;
68300;SDS011;55146;47.468;18.806;2023-03-01T00:50:10;29.93;;;14.57;;
68300;SDS011;55146;47.468;18.806;2023-03-01T00:52:36;28.92;;;14.68;;
68300;SDS011;55146;47.468;18.806;2023-03-01T00:55:02;27.47;;;14.43;;
68300;SDS011;55146;47.468;18.806;2023-03-01T00:57:28;27.08;;;13.52;;
68300;SDS011;55146;47.468;18.806;2023-03-01T00:59:53;28.37;;;14.93;;
68300;SDS011;55146;47.468;18.806;2023-03-01T01:02:19;25.47;;;13.77;;
68300;SDS011;55146;47.468;18.806;2023-03-01T01:04:45;23.85;;;13.95;;
68300;SDS011;55146;47.468;18.806;2023-03-01T01:07:10;27.40;;;13.95;;
68300;SDS011;55146;47.468;18.806;2023-03-01T01:09:36;25.13;;;14.53;;
68300;SDS011;55146;47.468;18.806;2023-03-01T01:12:02;27.13;;;14.63;;
68300;SDS011;55146;47.468;18.806;2023-03-01T01:14:27;25.23;;;12.87;;
68300;SDS011;55146;47.468;18.806;2023-03-01T01:16:54;25.65;;;12.35;;
68300;SDS011;55146;47.468;18.806;2023-03-01T01:19:19;27.48;;;13.65;;
68300;SDS011;55146;47.468;18.806;2023-03-01T01:21:45;27.30;;;13.27;;
68300;SDS011;55146;47.468;18.806;2023-03-01T01:24:11;26.20;;;13.73;;
68300;SDS011;55146;47.468;18.806;2023-03-01T01:26:36;22.37;;;13.67;;
68300;SDS011;55146;47.468;18.806;2023-03-01T01:29:03;23.27;;;14.07;;
68300;SDS011;55146;47.468;18.806;2023-03-01T01:31:29;25.10;;;13.90;;
68300;SDS011;55146;47.468;18.806;2023-03-01T01:33:57;23.45;;;13.57;;
68300;SDS011;55146;47.468;18.806;2023-03-01T01:36:23;24.75;;;12.68;;
68300;SDS011;55146;47.468;18.806;2023-03-01T01:38:49;25.05;;;13.57;;
68300;SDS011;55146;47.468;18.806;2023-03-01T01:41:14;28.57;;;14.40;;
68300;SDS011;55146;47.468;18.806;2023-03-01T01:43:41;25.33;;;13.27;;
68300;SDS011;55146;47.468;18.806;2023-03-01T01:48:57;23.38;;;12.77;;
68300;SDS011;55146;47.468;18.806;2023-03-01T01:51:31;24.50;;;12.55;;
68300;SDS011;55146;47.468;18.806;2023-03-01T01:54:06;20.90;;;11.63;;
68300;SDS011;55146;47.468;18.806;2023-03-01T01:56:55;17.65;;;9.93;;
68300;SDS011;55146;47.468;18.806;2023-03-01T01:59:26;18.62;;;9.95;;
68300;SDS011;55146;47.468;18.806;2023-03-01T02:01:54;18.12;;;9.95;;
68300;SDS011;55146;47.468;18.806;2023-03-01T02:04:21;16.52;;;8.73;;
68300;SDS011;55146;47.468;18.806;2023-03-01T02:07:04;16.20;;;10.07;;
68300;SDS011;55146;47.468;18.806;2023-03-01T02:09:36;15.93;;;9.55;;
68300;SDS011;55146;47.468;18.806;2023-03-01T02:12:01;17.23;;;9.48;;
68300;SDS011;55146;47.468;18.806;2023-03-01T02:14:29;17.60;;;9.23;;
68300;SDS011;55146;47.468;18.806;2023-03-01T02:16:54;18.53;;;9.63;;
68300;SDS011;55146;47.468;18.806;2023-03-01T02:19:55;15.45;;;8.88;;
68300;SDS011;55146;47.468;18.806;2023-03-01T02:22:33;16.50;;;8.50;;
68300;SDS011;55146;47.468;18.806;2023-03-01T02:27:58;14.90;;;9.10;;
68300;SDS011;55146;47.468;18.806;2023-03-01T02:30:34;16.25;;;9.82;;
68300;SDS011;55146;47.468;18.806;2023-03-01T02:33:00;15.68;;;8.50;;
68300;SDS011;55146;47.468;18.806;2023-03-01T02:35:35;16.47;;;9.40;;
68300;SDS011;55146;47.468;18.806;2023-03-01T02:38:03;21.10;;;10.00;;
68300;SDS011;55146;47.468;18.806;2023-03-01T02:40:31;17.50;;;9.07;;
68300;SDS011;55146;47.468;18.806;2023-03-01T02:42:59;19.17;;;9.50;;
68300;SDS011;55146;47.468;18.806;2023-03-01T02:45:25;16.73;;;9.40;;
68300;SDS011;55146;47.468;18.806;2023-03-01T02:47:55;13.95;;;8.02;;
68300;SDS011;55146;47.468;18.806;2023-03-01T02:53:13;16.23;;;8.50;;
68300;SDS011;55146;47.468;18.806;2023-03-01T02:55:48;16.23;;;9.18;;
68300;SDS011;55146;47.468;18.806;2023-03-01T02:58:14;16.92;;;8.90;;
68300;SDS011;55146;47.468;18.806;2023-03-01T03:00:40;17.03;;;10.07;;
68300;SDS011;55146;47.468;18.806;2023-03-01T03:03:13;16.92;;;9.63;;
68300;SDS011;55146;47.468;18.806;2023-03-01T03:05:40;15.40;;;9.10;;
68300;SDS011;55146;47.468;18.806;2023-03-01T03:08:05;15.97;;;9.07;;
68300;SDS011;55146;47.468;18.806;2023-03-01T03:10:34;17.83;;;10.50;;
68300;SDS011;55146;47.468;18.806;2023-03-01T03:13:05;16.73;;;9.40;;
68300;SDS011;55146;47.468;18.806;2023-03-01T03:15:33;18.10;;;10.30;;
68300;SDS011;55146;47.468;18.806;2023-03-01T03:18:01;16.87;;;9.88;;
68300;SDS011;55146;47.468;18.806;2023-03-01T03:20:28;15.98;;;9.25;;
68300;SDS011;55146;47.468;18.806;2023-03-01T03:22:55;15.27;;;9.33;;
68300;SDS011;55146;47.468;18.806;2023-03-01T03:25:21;18.52;;;9.75;;
68300;SDS011;55146;47.468;18.806;2023-03-01T03:27:48;17.42;;;9.23;;
68300;SDS011;55146;47.468;18.806;2023-03-01T03:30:22;18.10;;;9.45;;
68300;SDS011;55146;47.468;18.806;2023-03-01T03:32:48;18.20;;;10.48;;
68300;SDS011;55146;47.468;18.806;2023-03-01T03:35:24;17.67;;;10.07;;
68300;SDS011;55146;47.468;18.806;2023-03-01T03:38:00;18.55;;;10.25;;
68300;SDS011;55146;47.468;18.806;2023-03-01T03:42:59;16.55;;;9.15;;
68300;SDS011;55146;47.468;18.806;2023-03-01T03:45:24;17.27;;;9.03;;
68300;SDS011;55146;47.468;18.806;2023-03-01T03:47:50;20.30;;;9.55;;
68300;SDS011;55146;47.468;18.806;2023-03-01T03:50:16;17.27;;;10.07;;
68300;SDS011;55146;47.468;18.806;2023-03-01T03:52:43;16.60;;;8.50;;
68300;SDS011;55146;47.468;18.806;2023-03-01T03:55:09;17.92;;;9.35;;
68300;SDS011;55146;47.468;18.806;2023-03-01T03:57:42;16.10;;;9.80;;
68300;SDS011;55146;47.468;18.806;2023-03-01T04:00:09;17.62;;;8.68;;
68300;SDS011;55146;47.468;18.806;2023-03-01T04:02:39;15.57;;;9.27;;
68300;SDS011;55146;47.468;18.806;2023-03-01T04:05:06;16.20;;;9.37;;
68300;SDS011;55146;47.468;18.806;2023-03-01T04:07:33;14.82;;;8.68;;
68300;SDS011;55146;47.468;18.806;2023-03-01T04:09:59;17.10;;;9.40;;
68300;SDS011;55146;47.468;18.806;2023-03-01T04:12:24;16.20;;;8.70;;
68300;SDS011;55146;47.468;18.806;2023-03-01T04:14:49;16.70;;;9.07;;
68300;SDS011;55146;47.468;18.806;2023-03-01T04:17:15;16.97;;;9.30;;
68300;SDS011;55146;47.468;18.806;2023-03-01T04:19:40;16.00;;;9.90;;
68300;SDS011;55146;47.468;18.806;2023-03-01T04:22:08;17.83;;;9.77;;
68300;SDS011;55146;47.468;18.806;2023-03-01T04:24:36;16.15;;;8.77;;
68300;SDS011;55146;47.468;18.806;2023-03-01T04:27:01;15.23;;;8.30;;
68300;SDS011;55146;47.468;18.806;2023-03-01T04:29:27;16.20;;;9.05;;
68300;SDS011;55146;47.468;18.806;2023-03-01T04:31:53;17.05;;;9.70;;
68300;SDS011;55146;47.468;18.806;2023-03-01T04:34:18;16.37;;;9.13;;
68300;SDS011;55146;47.468;18.806;2023-03-01T04:36:44;17.30;;;9.53;;
68300;SDS011;55146;47.468;18.806;2023-03-01T04:39:09;17.42;;;9.10;;
68300;SDS011;55146;47.468;18.806;2023-03-01T04:41:38;18.23;;;9.27;;
68300;SDS011;55146;47.468;18.806;2023-03-01T04:44:05;18.02;;;9.02;;
68300;SDS011;55146;47.468;18.806;2023-03-01T04:46:31;17.35;;;9.57;;
68300;SDS011;55146;47.468;18.806;2023-03-01T04:48:56;16.50;;;8.52;;
68300;SDS011;55146;47.468;18.806;2023-03-01T04:51:22;18.17;;;10.57;;
68300;SDS011;55146;47.468;18.806;2023-03-01T04:53:47;18.87;;;9.50;;
68300;SDS011;55146;47.468;18.806;2023-03-01T04:56:13;15.87;;;9.47;;
68300;SDS011;55146;47.468;18.806;2023-03-01T04:58:39;17.02;;;9.13;;
68300;SDS011;55146;47.468;18.806;2023-03-01T05:01:18;15.67;;;8.60;;
68300;SDS011;55146;47.468;18.806;2023-03-01T05:03:45;17.67;;;9.65;;
68300;SDS011;55146;47.468;18.806;2023-03-01T05:06:17;18.15;;;9.98;;
68300;SDS011;55146;47.468;18.806;2023-03-01T05:08:43;16.70;;;10.02;;
68300;SDS011;55146;47.468;18.806;2023-03-01T05:11:09;18.10;;;9.57;;
68300;SDS011;55146;47.468;18.806;2023-03-01T05:13:36;16.12;;;9.20;;
68300;SDS011;55146;47.468;18.806;2023-03-01T05:16:03;15.25;;;7.95;;
68300;SDS011;55146;47.468;18.806;2023-03-01T05:18:30;18.12;;;9.57;;
68300;SDS011;55146;47.468;18.806;2023-03-01T05:21:04;16.13;;;8.27;;
68300;SDS011;55146;47.468;18.806;2023-03-01T05:23:32;16.10;;;8.38;;
68300;SDS011;55146;47.468;18.806;2023-03-01T05:25:59;16.17;;;9.77;;
68300;SDS011;55146;47.468;18.806;2023-03-01T05:28:25;16.17;;;8.23;;
68300;SDS011;55146;47.468;18.806;2023-03-01T05:30:53;17.42;;;9.75;;
68300;SDS011;55146;47.468;18.806;2023-03-01T05:33:19;14.40;;;8.83;;
68300;SDS011;55146;47.468;18.806;2023-03-01T05:35:46;15.93;;;9.13;;
68300;SDS011;55146;47.468;18.806;2023-03-01T05:38:13;16.73;;;9.15;;
68300;SDS011;55146;47.468;18.806;2023-03-01T05:40:40;16.08;;;8.55;;
68300;SDS011;55146;47.468;18.806;2023-03-01T05:43:09;17.30;;;9.05;;
68300;SDS011;55146;47.468;18.806;2023-03-01T05:45:36;14.73;;;8.77;;
68300;SDS011;55146;47.468;18.806;2023-03-01T05:48:03;21.92;;;12.02;;
68300;SDS011;55146;47.468;18.806;2023-03-01T05:50:31;22.30;;;13.38;;
68300;SDS011;55146;47.468;18.806;2023-03-01T05:55:25;20.40;;;11.48;;
68300;SDS011;55146;47.468;18.806;2023-03-01T05:57:51;16.13;;;9.13;;
68300;SDS011;55146;47.468;18.806;2023-03-01T06:00:17;17.52;;;9.27;;
68300;SDS011;55146;47.468;18.806;2023-03-01T06:02:44;18.05;;;9.57;;
68300;SDS011;55146;47.468;18.806;2023-03-01T06:05:11;16.90;;;9.67;;
68300;SDS011;55146;47.468;18.806;2023-03-01T06:07:37;16.05;;;9.77;;
68300;SDS011;55146;47.468;18.806;2023-03-01T06:10:04;15.57;;;9.05;;
68300;SDS011;55146;47.468;18.806;2023-03-01T06:12:34;14.98;;;8.60;;
68300;SDS011;55146;47.468;18.806;2023-03-01T06:15:01;20.53;;;10.47;;
68300;SDS011;55146;47.468;18.806;2023-03-01T06:17:31;19.05;;;10.52;;
68300;SDS011;55146;47.468;18.806;2023-03-01T06:20:02;16.17;;;8.98;;
68300;SDS011;55146;47.468;18.806;2023-03-01T06:22:31;18.27;;;9.77;;
68300;SDS011;55146;47.468;18.806;2023-03-01T06:24:56;16.80;;;9.27;;
68300;SDS011;55146;47.468;18.806;2023-03-01T06:27:22;15.23;;;9.17;;
68300;SDS011;55146;47.468;18.806;2023-03-01T06:29:47;19.67;;;9.13;;
68300;SDS011;55146;47.468;18.806;2023-03-01T06:32:13;18.27;;;9.60;;
68300;SDS011;55146;47.468;18.806;2023-03-01T06:34:39;16.40;;;8.50;;
68300;SDS011;55146;47.468;18.806;2023-03-01T06:37:04;17.27;;;9.97;;
68300;SDS011;55146;47.468;18.806;2023-03-01T06:39:32;21.42;;;12.75;;
68300;SDS011;55146;47.468;18.806;2023-03-01T06:41:57;22.75;;;13.25;;
68300;SDS011;55146;47.468;18.806;2023-03-01T06:44:23;26.77;;;12.57;;
68300;SDS011;55146;47.468;18.806;2023-03-01T06:46:48;18.67;;;10.85;;
68300;SDS011;55146;47.468;18.806;2023-03-01T06:49:14;19.50;;;12.23;;
68300;SDS011;55146;47.468;18.806;2023-03-01T06:51:41;20.45;;;10.43;;
68300;SDS011;55146;47.468;18.806;2023-03-01T06:54:06;16.73;;;9.73;;
68300;SDS011;55146;47.468;18.806;2023-03-01T06:56:32;19.02;;;9.25;;
68300;SDS011;55146;47.468;18.806;2023-03-01T06:58:58;18.10;;;9.00;;
68300;SDS011;55146;47.468;18.806;2023-03-01T07:01:23;17.37;;;9.50;;
68300;SDS011;55146;47.468;18.806;2023-03-01T07:03:49;18.83;;;8.87;;
68300;SDS011;55146;47.468;18.806;2023-03-01T07:06:14;18.47;;;9.57;;
68300;SDS011;55146;47.468;18.806;2023-03-01T07:08:40;16.47;;;9.17;;
68300;SDS011;55146;47.468;18.806;2023-03-01T07:11:05;15.57;;;9.37;;
68300;SDS011;55146;47.468;18.806;2023-03-01T07:13:31;17.62;;;8.98;;
68300;SDS011;55146;47.468;18.806;2023-03-01T07:15:56;15.47;;;8.13;;
68300;SDS011;55146;47.468;18.806;2023-03-01T07:18:22;17.83;;;9.20;;
68300;SDS011;55146;47.468;18.806;2023-03-01T07:20:47;15.60;;;9.53;;
68300;SDS011;55146;47.468;18.806;2023-03-01T07:23:13;19.80;;;9.53;;
68300;SDS011;55146;47.468;18.806;2023-03-01T07:25:38;15.43;;;9.30;;
68300;SDS011;55146;47.468;18.806;2023-03-01T07:28:03;16.58;;;8.88;;
68300;SDS011;55146;47.468;18.806;2023-03-01T07:30:29;17.37;;;8.27;;
68300;SDS011;55146;47.468;18.806;2023-03-01T07:32:55;14.30;;;8.30;;
68300;SDS011;55146;47.468;18.806;2023-03-01T07:35:22;14.77;;;9.05;;
68300;SDS011;55146;47.468;18.806;2023-03-01T07:37:49;14.20;;;7.70;;
68300;SDS011;55146;47.468;18.806;2023-03-01T07:40:15;16.07;;;8.97;;
68300;SDS011;55146;47.468;18.806;2023-03-01T07:42:40;16.50;;;8.40;;
68300;SDS011;55146;47.468;18.806;2023-03-01T07:45:06;18.57;;;9.63;;
68300;SDS011;55146;47.468;18.806;2023-03-01T07:47:32;15.70;;;8.82;;
68300;SDS011;55146;47.468;18.806;2023-03-01T07:49:58;17.20;;;9.00;;
68300;SDS011;55146;47.468;18.806;2023-03-01T07:52:23;15.67;;;8.37;;
68300;SDS011;55146;47.468;18.806;2023-03-01T07:54:48;14.10;;;8.53;;
68300;SDS011;55146;47.468;18.806;2023-03-01T07:57:14;13.55;;;7.87;;
68300;SDS011;55146;47.468;18.806;2023-03-01T07:59:39;14.30;;;7.90;;
68300;SDS011;55146;47.468;18.806;2023-03-01T08:02:05;14.43;;;7.57;;
68300;SDS011;55146;47.468;18.806;2023-03-01T08:04:31;13.77;;;8.45;;
68300;SDS011;55146;47.468;18.806;2023-03-01T08:06:58;16.05;;;9.27;;
68300;SDS011;55146;47.468;18.806;2023-03-01T08:09:23;14.53;;;8.77;;
68300;SDS011;55146;47.468;18.806;2023-03-01T08:11:49;14.93;;;8.70;;
68300;SDS011;55146;47.468;18.806;2023-03-01T08:14:14;14.60;;;8.77;;
68300;SDS011;55146;47.468;18.806;2023-03-01T08:16:40;16.33;;;9.00;;
68300;SDS011;55146;47.468;18.806;2023-03-01T08:19:06;16.58;;;9.15;;
68300;SDS011;55146;47.468;18.806;2023-03-01T08:21:32;16.27;;;9.10;;
68300;SDS011;55146;47.468;18.806;2023-03-01T08:23:59;14.63;;;8.18;;
68300;SDS011;55146;47.468;18.806;2023-03-01T08:26:26;13.68;;;7.47;;
68300;SDS011;55146;47.468;18.806;2023-03-01T08:28:51;16.17;;;8.60;;
68300;SDS011;55146;47.468;18.806;2023-03-01T08:34:13;19.87;;;8.60;;
68300;SDS011;55146;47.468;18.806;2023-03-01T08:36:41;13.68;;;9.25;;
68300;SDS011;55146;47.468;18.806;2023-03-01T08:39:09;14.07;;;8.20;;
68300;SDS011;55146;47.468;18.806;2023-03-01T08:41:35;14.43;;;7.53;;
68300;SDS011;55146;47.468;18.806;2023-03-01T08:44:01;12.87;;;7.73;;
68300;SDS011;55146;47.468;18.806;2023-03-01T08:46:31;13.77;;;8.40;;
68300;SDS011;55146;47.468;18.806;2023-03-01T08:48:58;16.42;;;8.98;;
68300;SDS011;55146;47.468;18.806;2023-03-01T08:51:23;14.63;;;8.37;;
68300;SDS011;55146;47.468;18.806;2023-03-01T08:53:50;15.25;;;8.95;;
68300;SDS011;55146;47.468;18.806;2023-03-01T08:56:16;13.90;;;8.23;;
68300;SDS011;55146;47.468;18.806;2023-03-01T08:58:43;14.23;;;7.95;;
68300;SDS011;55146;47.468;18.806;2023-03-01T09:01:10;16.40;;;8.88;;
68300;SDS011;55146;47.468;18.806;2023-03-01T09:03:37;18.10;;;8.57;;
68300;SDS011;55146;47.468;18.806;2023-03-01T09:06:03;16.13;;;8.03;;
68300;SDS011;55146;47.468;18.806;2023-03-01T09:08:30;15.82;;;8.45;;
68300;SDS011;55146;47.468;18.806;2023-03-01T09:10:56;15.73;;;9.18;;
68300;SDS011;55146;47.468;18.806;2023-03-01T09:13:21;12.57;;;8.07;;
68300;SDS011;55146;47.468;18.806;2023-03-01T09:15:49;14.38;;;8.07;;
68300;SDS011;55146;47.468;18.806;2023-03-01T09:18:15;15.50;;;8.43;;
68300;SDS011;55146;47.468;18.806;2023-03-01T09:20:40;16.30;;;8.37;;
68300;SDS011;55146;47.468;18.806;2023-03-01T09:23:06;16.25;;;9.00;;
68300;SDS011;55146;47.468;18.806;2023-03-01T09:25:33;15.33;;;8.60;;
68300;SDS011;55146;47.468;18.806;2023-03-01T09:27:59;15.75;;;9.07;;
68300;SDS011;55146;47.468;18.806;2023-03-01T09:30:24;15.07;;;8.23;;
68300;SDS011;55146;47.468;18.806;2023-03-01T09:32:49;15.37;;;9.00;;
68300;SDS011;55146;47.468;18.806;2023-03-01T09:35:15;15.67;;;8.27;;
68300;SDS011;55146;47.468;18.806;2023-03-01T09:37:40;14.43;;;8.17;;
68300;SDS011;55146;47.468;18.806;2023-03-01T09:40:14;18.95;;;10.68;;
68300;SDS011;55146;47.468;18.806;2023-03-01T09:45:43;13.32;;;8.43;;
68300;SDS011;55146;47.468;18.806;2023-03-01T09:48:12;15.13;;;8.80;;
68300;SDS011;55146;47.468;18.806;2023-03-01T09:50:42;16.20;;;9.85;;
68300;SDS011;55146;47.468;18.806;2023-03-01T09:53:16;18.65;;;9.63;;
68300;SDS011;55146;47.468;18.806;2023-03-01T10:01:10;15.18;;;8.63;;
68300;SDS011;55146;47.468;18.806;2023-03-01T10:03:58;17.45;;;8.27;;
68300;SDS011;55146;47.468;18.806;2023-03-01T10:06:49;16.17;;;8.23;;
68300;SDS011;55146;47.468;18.806;2023-03-01T10:09:28;15.57;;;9.23;;
68300;SDS011;55146;47.468;18.806;2023-03-01T10:11:58;14.13;;;8.18;;
68300;SDS011;55146;47.468;18.806;2023-03-01T10:20:42;14.15;;;8.65;;
68300;SDS011;55146;47.468;18.806;2023-03-01T10:23:16;12.93;;;8.80;;
68300;SDS011;55146;47.468;18.806;2023-03-01T10:25:47;15.90;;;8.97;;
68300;SDS011;55146;47.468;18.806;2023-03-01T10:31:32;14.45;;;8.90;;
68300;SDS011;55146;47.468;18.806;2023-03-01T10:34:12;13.57;;;7.85;;
68300;SDS011;55146;47.468;18.806;2023-03-01T10:36:44;16.20;;;8.65;;
68300;SDS011;55146;47.468;18.806;2023-03-01T10:39:17;17.50;;;8.50;;
68300;SDS011;55146;47.468;18.806;2023-03-01T10:41:51;15.43;;;8.77;;
68300;SDS011;55146;47.468;18.806;2023-03-01T10:44:35;18.45;;;8.13;;
68300;SDS011;55146;47.468;18.806;2023-03-01T10:47:14;14.43;;;7.55;;
68300;SDS011;55146;47.468;18.806;2023-03-01T10:52:25;12.73;;;8.27;;
68300;SDS011;55146;47.468;18.806;2023-03-01T10:57:40;22.75;;;14.55;;
68300;SDS011;55146;47.468;18.806;2023-03-01T11:02:37;13.95;;;8.45;;
68300;SDS011;55146;47.468;18.806;2023-03-01T11:07:47;16.55;;;8.82;;
68300;SDS011;55146;47.468;18.806;2023-03-01T11:10:28;14.73;;;8.73;;
68300;SDS011;55146;47.468;18.806;2023-03-01T11:13:15;13.88;;;8.05;;
68300;SDS011;55146;47.468;18.806;2023-03-01T11:15:43;12.95;;;7.93;;
68300;SDS011;55146;47.468;18.806;2023-03-01T11:18:22;15.82;;;8.30;;
68300;SDS011;55146;47.468;18.806;2023-03-01T11:20:49;16.43;;;8.77;;
68300;SDS011;55146;47.468;18.806;2023-03-01T11:23:18;13.50;;;8.52;;
68300;SDS011;55146;47.468;18.806;2023-03-01T11:26:05;17.48;;;9.10;;
68300;SDS011;55146;47.468;18.806;2023-03-01T11:28:33;14.90;;;7.93;;
68300;SDS011;55146;47.468;18.806;2023-03-01T11:33:34;18.17;;;10.20;;
68300;SDS011;55146;47.468;18.806;2023-03-01T11:36:04;15.45;;;8.25;;
68300;SDS011;55146;47.468;18.806;2023-03-01T11:38:36;19.50;;;10.07;;
68300;SDS011;55146;47.468;18.806;2023-03-01T11:49:04;15.95;;;10.52;;
68300;SDS011;55146;47.468;18.806;2023-03-01T12:14:42;14.10;;;9.50;;
68300;SDS011;55146;47.468;18.806;2023-03-01T12:17:39;14.57;;;8.60;;
68300;SDS011;55146;47.468;18.806;2023-03-01T12:20:27;16.12;;;8.75;;
68300;SDS011;55146;47.468;18.806;2023-03-01T12:25:39;16.55;;;9.65;;
68300;SDS011;55146;47.468;18.806;2023-03-01T12:44:28;17.17;;;8.77;;
68300;SDS011;55146;47.468;18.806;2023-03-01T12:47:35;16.70;;;8.68;;
68300;SDS011;55146;47.468;18.806;2023-03-01T12:50:21;15.73;;;7.80;;
68300;SDS011;55146;47.468;18.806;2023-03-01T12:52:57;15.35;;;8.63;;
68300;SDS011;55146;47.468;18.806;2023-03-01T12:55:28;25.33;;;10.83;;
68300;SDS011;55146;47.468;18.806;2023-03-01T13:05:56;13.75;;;7.90;;
68300;SDS011;55146;47.468;18.806;2023-03-01T13:08:41;14.17;;;7.80;;
68300;SDS011;55146;47.468;18.806;2023-03-01T13:11:20;17.12;;;8.32;;
68300;SDS011;55146;47.468;18.806;2023-03-01T13:13:47;15.25;;;8.35;;
68300;SDS011;55146;47.468;18.806;2023-03-01T13:18:48;16.42;;;9.35;;
68300;SDS011;55146;47.468;18.806;2023-03-01T13:21:13;15.17;;;9.57;;
68300;SDS011;55146;47.468;18.806;2023-03-01T13:23:55;17.90;;;10.15;;
68300;SDS011;55146;47.468;18.806;2023-03-01T13:26:21;21.47;;;9.67;;
68300;SDS011;55146;47.468;18.806;2023-03-01T13:28:50;17.40;;;9.30;;
68300;SDS011;55146;47.468;18.806;2023-03-01T13:33:48;15.57;;;9.52;;
68300;SDS011;55146;47.468;18.806;2023-03-01T13:38:56;14.52;;;8.18;;
68300;SDS011;55146;47.468;18.806;2023-03-01T13:44:12;18.15;;;11.05;;
68300;SDS011;55146;47.468;18.806;2023-03-01T13:46:52;17.37;;;9.50;;
68300;SDS011;55146;47.468;18.806;2023-03-01T13:49:33;18.53;;;10.30;;
68300;SDS011;55146;47.468;18.806;2023-03-01T13:57:39;18.83;;;8.70;;
68300;SDS011;55146;47.468;18.806;2023-03-01T14:00:30;19.55;;;9.38;;
68300;SDS011;55146;47.468;18.806;2023-03-01T14:02:59;14.80;;;8.87;;
68300;SDS011;55146;47.468;18.806;2023-03-01T14:05:25;14.57;;;8.02;;
68300;SDS011;55146;47.468;18.806;2023-03-01T14:07:51;15.20;;;8.43;;
68300;SDS011;55146;47.468;18.806;2023-03-01T14:10:17;15.10;;;8.85;;
68300;SDS011;55146;47.468;18.806;2023-03-01T14:15:39;17.97;;;8.80;;
68300;SDS011;55146;47.468;18.806;2023-03-01T14:20:53;15.65;;;9.00;;
68300;SDS011;55146;47.468;18.806;2023-03-01T14:23:22;13.07;;;7.40;;
68300;SDS011;55146;47.468;18.806;2023-03-01T14:25:49;12.30;;;7.12;;
68300;SDS011;55146;47.468;18.806;2023-03-01T14:30:46;13.70;;;6.65;;
68300;SDS011;55146;47.468;18.806;2023-03-01T14:36:00;11.43;;;6.65;;
68300;SDS011;55146;47.468;18.806;2023-03-01T14:38:37;14.27;;;7.60;;
68300;SDS011;55146;47.468;18.806;2023-03-01T14:41:09;16.20;;;7.37;;
68300;SDS011;55146;47.468;18.806;2023-03-01T14:43:38;14.77;;;7.35;;
68300;SDS011;55146;47.468;18.806;2023-03-01T14:46:15;12.40;;;7.45;;
68300;SDS011;55146;47.468;18.806;2023-03-01T14:48:54;11.98;;;7.10;;
68300;SDS011;55146;47.468;18.806;2023-03-01T14:51:23;12.32;;;7.05;;
68300;SDS011;55146;47.468;18.806;2023-03-01T14:53:49;10.97;;;6.60;;
68300;SDS011;55146;47.468;18.806;2023-03-01T14:56:16;12.80;;;7.37;;
68300;SDS011;55146;47.468;18.806;2023-03-01T14:58:42;14.10;;;6.70;;
68300;SDS011;55146;47.468;18.806;2023-03-01T15:01:13;11.47;;;6.03;;
68300;SDS011;55146;47.468;18.806;2023-03-01T15:06:47;11.02;;;6.25;;
68300;SDS011;55146;47.468;18.806;2023-03-01T15:09:15;13.40;;;6.80;;
68300;SDS011;55146;47.468;18.806;2023-03-01T15:11:42;14.15;;;6.85;;
68300;SDS011;55146;47.468;18.806;2023-03-01T15:17:16;13.67;;;6.90;;
68300;SDS011;55146;47.468;18.806;2023-03-01T15:19:49;12.35;;;5.80;;
68300;SDS011;55146;47.468;18.806;2023-03-01T15:22:15;11.57;;;5.78;;
68300;SDS011;55146;47.468;18.806;2023-03-01T15:24:41;13.80;;;5.70;;
68300;SDS011;55146;47.468;18.806;2023-03-01T15:27:14;12.70;;;5.50;;
68300;SDS011;55146;47.468;18.806;2023-03-01T15:29:47;12.13;;;7.05;;
68300;SDS011;55146;47.468;18.806;2023-03-01T15:34:59;10.10;;;6.55;;
68300;SDS011;55146;47.468;18.806;2023-03-01T15:37:47;9.82;;;6.00;;
68300;SDS011;55146;47.468;18.806;2023-03-01T15:40:24;14.33;;;6.00;;
68300;SDS011;55146;47.468;18.806;2023-03-01T15:42:58;11.50;;;5.40;;
68300;SDS011;55146;47.468;18.806;2023-03-01T15:45:25;10.00;;;5.78;;
68300;SDS011;55146;47.468;18.806;2023-03-01T15:47:53;9.20;;;5.37;;
68300;SDS011;55146;47.468;18.806;2023-03-01T15:52:52;17.07;;;7.87;;
68300;SDS011;55146;47.468;18.806;2023-03-01T15:57:45;18.80;;;8.30;;
68300;SDS011;55146;47.468;18.806;2023-03-01T16:00:11;15.87;;;8.33;;
68300;SDS011;55146;47.468;18.806;2023-03-01T16:02:39;20.12;;;7.60;;
68300;SDS011;55146;47.468;18.806;2023-03-01T16:05:05;15.52;;;7.90;;
68300;SDS011;55146;47.468;18.806;2023-03-01T16:07:41;13.07;;;6.85;;
68300;SDS011;55146;47.468;18.806;2023-03-01T16:10:06;14.60;;;9.30;;
68300;SDS011;55146;47.468;18.806;2023-03-01T16:12:32;17.63;;;10.23;;
68300;SDS011;55146;47.468;18.806;2023-03-01T16:14:57;18.13;;;13.00;;
68300;SDS011;55146;47.468;18.806;2023-03-01T16:17:23;22.33;;;10.15;;
68300;SDS011;55146;47.468;18.806;2023-03-01T16:19:48;22.77;;;12.50;;
68300;SDS011;55146;47.468;18.806;2023-03-01T16:22:14;21.47;;;12.57;;
68300;SDS011;55146;47.468;18.806;2023-03-01T16:24:39;20.05;;;10.93;;
68300;SDS011;55146;47.468;18.806;2023-03-01T16:27:06;21.37;;;10.93;;
68300;SDS011;55146;47.468;18.806;2023-03-01T16:29:32;15.70;;;9.85;;
68300;SDS011;55146;47.468;18.806;2023-03-01T16:32:01;20.73;;;11.63;;
68300;SDS011;55146;47.468;18.806;2023-03-01T16:34:27;21.05;;;11.52;;
68300;SDS011;55146;47.468;18.806;2023-03-01T16:36:52;17.77;;;11.03;;
68300;SDS011;55146;47.468;18.806;2023-03-01T16:39:17;21.97;;;12.03;;
68300;SDS011;55146;47.468;18.806;2023-03-01T16:41:43;19.63;;;11.20;;
68300;SDS011;55146;47.468;18.806;2023-03-01T16:44:08;20.60;;;12.07;;
68300;SDS011;55146;47.468;18.806;2023-03-01T16:46:34;21.58;;;11.00;;
68300;SDS011;55146;47.468;18.806;2023-03-01T16:49:00;21.52;;;12.63;;
68300;SDS011;55146;47.468;18.806;2023-03-01T16:51:26;19.00;;;12.50;;
68300;SDS011;55146;47.468;18.806;2023-03-01T16:53:51;23.63;;;13.30;;
68300;SDS011;55146;47.468;18.806;2023-03-01T16:56:18;22.13;;;12.93;;